createdAt,value
2024-02-28T00:02:12.883Z,79.13
2024-02-28T00:07:15.763Z,79.57
2024-02-28T00:12:18.868Z,80.37
2024-02-28T00:17:21.579Z,80.50
2024-02-28T00:22:24.063Z,72.63
2024-02-28T00:27:27.159Z,72.27
2024-02-28T00:32:29.679Z,72.37
2024-02-28T00:37:32.609Z,96.53
2024-02-28T00:42:35.280Z,113.93
2024-02-28T00:47:39.110Z,97.13
2024-02-28T00:52:41.728Z,64.17
2024-02-28T00:57:44.343Z,46.57
2024-02-28T01:02:47.068Z,42.80
2024-02-28T01:07:49.602Z,44.07
2024-02-28T01:12:52.138Z,43.33
2024-02-28T01:17:54.691Z,60.90
2024-02-28T01:22:57.196Z,48.00
2024-02-28T01:27:59.990Z,35.93
2024-02-28T01:33:02.716Z,35.57
2024-02-28T01:38:05.497Z,33.57
2024-02-28T01:43:09.771Z,35.57
2024-02-28T01:48:15.069Z,33.70
2024-02-28T01:53:20.058Z,33.27
2024-02-28T01:58:24.780Z,32.13
2024-02-28T02:03:27.443Z,34.93
2024-02-28T02:08:30.506Z,32.63
2024-02-28T02:13:33.147Z,34.67
2024-02-28T02:18:35.715Z,35.00
2024-02-28T02:23:42.470Z,37.23
2024-02-28T02:28:45.063Z,38.90
2024-02-28T02:33:47.656Z,36.33
2024-02-28T02:38:50.181Z,34.80
2024-02-28T02:43:52.642Z,37.17
2024-02-28T02:48:55.271Z,46.03
2024-02-28T02:53:57.794Z,39.73
2024-02-28T02:59:00.353Z,37.40
2024-02-28T03:04:02.864Z,35.63
2024-02-28T03:09:06.723Z,45.23
2024-02-28T03:14:09.289Z,41.80
2024-02-28T03:19:12.240Z,40.67
2024-02-28T03:24:14.960Z,42.80
2024-02-28T03:29:17.603Z,43.43
2024-02-28T03:34:20.059Z,41.37
2024-02-28T03:39:22.738Z,42.23
2024-02-28T03:44:26.937Z,37.13
2024-02-28T03:49:29.524Z,38.47
2024-02-28T03:54:32.115Z,39.40
2024-02-28T03:59:34.728Z,38.77
2024-02-28T04:04:37.326Z,37.53
2024-02-28T04:09:39.961Z,38.03
2024-02-28T04:14:42.550Z,41.40
2024-02-28T04:19:45.002Z,38.47
2024-02-28T04:24:47.557Z,39.07
2024-02-28T04:29:50.048Z,37.63
2024-02-28T04:34:52.801Z,37.23
2024-02-28T04:39:55.795Z,39.47
2024-02-28T04:44:58.423Z,40.50
2024-02-28T04:50:00.993Z,38.33
2024-02-28T04:55:03.814Z,39.10
2024-02-28T05:00:07.057Z,41.03
2024-02-28T05:05:10.033Z,41.57
2024-02-28T05:10:12.660Z,39.53
2024-02-28T05:15:15.269Z,44.23
2024-02-28T05:20:17.856Z,45.03
2024-02-28T05:25:20.398Z,45.00
2024-02-28T05:30:23.155Z,43.60
2024-02-28T05:35:25.669Z,44.43
2024-02-28T05:40:28.259Z,43.07
2024-02-28T05:45:30.969Z,46.87
2024-02-28T05:50:34.220Z,45.47
2024-02-28T05:55:36.923Z,45.40
2024-02-28T06:00:39.664Z,42.63
2024-02-28T06:05:43.816Z,42.33
2024-02-28T06:10:48.235Z,40.37
2024-02-28T06:15:51.141Z,40.47
2024-02-28T06:20:55.826Z,42.93
2024-02-28T06:25:58.886Z,41.17
2024-02-28T06:31:02.203Z,43.10
2024-02-28T06:36:05.235Z,41.47
2024-02-28T06:41:07.836Z,42.70
2024-02-28T06:46:10.993Z,40.00
2024-02-28T06:51:15.973Z,43.90
2024-02-28T06:56:19.938Z,38.97
2024-02-28T07:01:22.612Z,34.90
2024-02-28T07:06:25.920Z,34.37
2024-02-28T07:11:28.949Z,30.53
2024-02-28T07:16:33.760Z,41.07
2024-02-28T07:21:38.171Z,35.67
2024-02-28T07:26:42.158Z,28.37
2024-02-28T07:31:44.994Z,47.83
2024-02-28T07:36:50.633Z,42.63
2024-02-28T07:41:56.341Z,33.60
2024-02-28T07:47:00.126Z,31.57
2024-02-28T07:52:02.818Z,30.83
2024-02-28T07:57:05.649Z,39.13
2024-02-28T08:02:08.651Z,31.17
2024-02-28T08:07:11.285Z,42.00
2024-02-28T08:12:13.979Z,37.23
2024-02-28T08:17:16.487Z,22.73
2024-02-28T08:22:19.016Z,22.57
2024-02-28T08:27:22.105Z,19.27
2024-02-28T08:32:24.634Z,19.87
2024-02-28T08:37:29.767Z,20.33
2024-02-28T08:42:32.400Z,21.23
2024-02-28T08:47:35.111Z,24.17
2024-02-28T08:52:37.880Z,27.90
2024-02-28T08:57:40.448Z,34.67
2024-02-28T09:02:43.319Z,21.30
2024-02-28T09:07:52.769Z,32.70
2024-02-28T09:12:55.473Z,66.40
2024-02-28T09:17:58.060Z,43.40
2024-02-28T09:23:00.694Z,66.57
2024-02-28T09:28:05.844Z,30.03
2024-02-28T09:33:09.092Z,27.23
2024-02-28T09:38:12.280Z,25.80
2024-02-28T09:43:28.627Z,53.33
2024-02-28T09:48:32.056Z,55.03
2024-02-28T09:53:34.628Z,23.03
2024-02-28T09:58:39.155Z,64.77
2024-02-28T10:03:44.681Z,62.67
2024-02-28T10:08:50.208Z,43.83
2024-02-28T10:13:54.045Z,35.80
2024-02-28T10:18:56.668Z,25.30
2024-02-28T10:24:02.669Z,71.57
2024-02-28T10:29:08.805Z,39.37
2024-02-28T10:34:12.974Z,32.83
2024-02-28T10:39:15.964Z,29.97
2024-02-28T10:44:18.853Z,25.93
2024-02-28T10:49:21.344Z,26.63
2024-02-28T10:54:26.410Z,43.70
2024-02-28T10:59:31.112Z,35.50
2024-02-28T11:04:34.146Z,41.83
2024-02-28T11:09:37.140Z,49.80
2024-02-28T11:14:39.921Z,46.50
2024-02-28T11:19:42.366Z,19.53
2024-02-28T11:24:46.031Z,24.20
2024-02-28T11:29:48.868Z,20.10
2024-02-28T11:34:52.707Z,15.70
2024-02-28T11:39:55.987Z,16.90
2024-02-28T11:45:01.292Z,14.50
2024-02-28T11:50:10.551Z,20.77
2024-02-28T11:55:13.675Z,15.20
2024-02-28T12:00:16.421Z,18.03
2024-02-28T12:05:21.237Z,14.83
2024-02-28T12:10:24.407Z,11.17
2024-02-28T12:15:27.015Z,11.90
2024-02-28T12:20:29.627Z,25.83
2024-02-28T12:25:32.488Z,24.77
2024-02-28T12:30:42.786Z,39.17
2024-02-28T12:35:45.326Z,46.10
2024-02-28T12:40:47.993Z,40.33
2024-02-28T12:45:50.746Z,44.57
2024-02-28T12:50:53.561Z,54.37
2024-02-28T12:55:56.103Z,39.13
2024-02-28T13:00:58.761Z,33.03
2024-02-28T13:06:01.500Z,31.07
2024-02-28T13:11:04.994Z,39.27
2024-02-28T13:16:07.648Z,46.03
2024-02-28T13:21:13.573Z,52.77
2024-02-28T13:26:19.533Z,58.27
2024-02-28T13:31:22.665Z,54.00
2024-02-28T13:36:26.111Z,31.80
2024-02-28T13:41:28.921Z,29.27
2024-02-28T13:46:33.359Z,26.67
2024-02-28T13:51:36.135Z,34.63
2024-02-28T13:56:38.908Z,29.17
2024-02-28T14:01:41.768Z,37.67
2024-02-28T14:06:46.425Z,26.27
2024-02-28T14:11:49.382Z,49.10
2024-02-28T14:16:54.668Z,24.03
2024-02-28T14:21:57.528Z,36.17
2024-02-28T14:27:00.244Z,40.33
2024-02-28T14:32:03.193Z,30.30
2024-02-28T14:37:05.811Z,31.37
2024-02-28T14:42:12.836Z,31.20
2024-02-28T14:47:18.479Z,26.13
2024-02-28T14:52:21.143Z,19.50
2024-02-28T14:57:23.828Z,29.63
2024-02-28T15:02:26.419Z,22.40
2024-02-28T15:07:29.899Z,19.10
2024-02-28T15:12:34.614Z,18.20
2024-02-28T15:17:37.370Z,14.87
2024-02-28T15:22:44.050Z,19.93
2024-02-28T15:27:46.577Z,36.57
2024-02-28T15:32:49.192Z,35.13
2024-02-28T15:37:52.047Z,31.70
2024-02-28T15:42:54.735Z,39.67
2024-02-28T15:47:57.726Z,30.97
2024-02-28T15:53:00.276Z,32.00
2024-02-28T15:58:02.953Z,37.83
2024-02-28T16:03:06.850Z,18.30
2024-02-28T16:08:09.836Z,29.67
2024-02-28T16:13:13.198Z,20.33
2024-02-28T16:18:15.805Z,21.23
2024-02-28T16:23:18.340Z,23.03
2024-02-28T16:28:20.856Z,28.07
2024-02-28T16:33:24.502Z,19.90
2024-02-28T16:38:27.069Z,19.47
2024-02-28T16:43:30.045Z,36.43
2024-02-28T16:48:32.570Z,47.50
2024-02-28T16:53:35.126Z,26.77
2024-02-28T16:58:41.343Z,32.73
2024-02-28T17:03:47.155Z,45.23
2024-02-28T17:08:51.440Z,45.90
2024-02-28T17:13:54.053Z,32.40
2024-02-28T17:18:56.641Z,49.20
2024-02-28T17:23:59.449Z,35.00
2024-02-28T17:29:01.982Z,30.23
2024-02-28T17:34:04.686Z,19.97
2024-02-28T17:39:07.241Z,34.53
2024-02-28T17:44:11.895Z,48.13
2024-02-28T17:49:15.235Z,34.30
2024-02-28T17:54:17.884Z,34.17
2024-02-28T17:59:22.996Z,42.60
2024-02-28T18:04:26.839Z,36.03
2024-02-28T18:09:29.470Z,23.20
2024-02-28T18:14:35.598Z,24.00
2024-02-28T18:19:39.434Z,23.73
2024-02-28T18:24:41.959Z,20.00
2024-02-28T18:29:44.494Z,19.40
2024-02-28T18:34:51.379Z,18.87
2024-02-28T18:40:17.036Z,16.50
2024-02-28T18:45:19.839Z,19.07
2024-02-28T18:50:25.031Z,23.37
2024-02-28T18:55:27.855Z,21.60
2024-02-28T19:00:31.831Z,22.13
2024-02-28T19:05:34.712Z,23.67
2024-02-28T19:10:37.543Z,25.40
2024-02-28T19:15:40.294Z,20.17
2024-02-28T19:20:42.817Z,42.73
2024-02-28T19:25:47.115Z,29.07
2024-02-28T19:30:50.371Z,38.50
2024-02-28T19:35:53.209Z,50.00
2024-02-28T19:40:55.754Z,51.10
2024-02-28T19:45:58.407Z,67.57
2024-02-28T19:51:01.007Z,59.30
2024-02-28T19:56:03.956Z,71.20
2024-02-28T20:01:06.585Z,40.03
2024-02-28T20:06:09.260Z,53.03
2024-02-28T20:11:12.025Z,40.43
2024-02-28T20:16:15.347Z,23.57
2024-02-28T20:21:24.632Z,38.03
2024-02-28T20:26:31.040Z,32.47
2024-02-28T20:31:33.585Z,19.67
2024-02-28T20:36:36.645Z,22.87
2024-02-28T20:41:40.377Z,21.47
2024-02-28T20:46:42.968Z,19.20
2024-02-28T20:51:45.490Z,21.73
2024-02-28T20:56:49.099Z,21.83
2024-02-28T21:01:52.862Z,15.80
2024-02-28T21:06:55.551Z,12.60
2024-02-28T21:12:05.030Z,16.43
2024-02-28T21:17:07.885Z,15.77
2024-02-28T21:22:11.024Z,14.77
2024-02-28T21:27:14.062Z,13.80
2024-02-28T21:32:16.656Z,14.13
2024-02-28T21:37:19.305Z,13.70
2024-02-28T21:42:22.057Z,13.33
2024-02-28T21:47:25.352Z,15.83
2024-02-28T21:52:27.958Z,15.90
2024-02-28T21:57:30.500Z,13.17
2024-02-28T22:02:33.163Z,14.20
2024-02-28T22:07:39.489Z,15.87
2024-02-28T22:12:45.281Z,30.10
2024-02-28T22:17:48.577Z,20.70
2024-02-28T22:22:51.192Z,26.97
2024-02-28T22:27:53.767Z,23.47
2024-02-28T22:32:56.580Z,24.33
2024-02-28T22:37:59.069Z,26.53
2024-02-28T22:43:01.685Z,15.03
2024-02-28T22:48:04.603Z,15.03
2024-02-28T22:53:07.148Z,14.70
2024-02-28T22:58:09.885Z,14.20
2024-02-28T23:03:14.893Z,18.13
2024-02-28T23:08:17.376Z,22.27
2024-02-28T23:13:19.964Z,22.43
2024-02-28T23:18:22.806Z,30.30
2024-02-28T23:23:25.386Z,22.97
2024-02-28T23:28:27.960Z,18.63
2024-02-28T23:33:30.773Z,24.90
2024-02-28T23:38:33.377Z,28.10
2024-02-28T23:43:35.900Z,31.27
2024-02-28T23:48:38.550Z,16.13
2024-02-28T23:53:41.083Z,14.97
2024-02-28T23:58:43.629Z,15.03
